sensor_id;sensor_type;location;lat;lon;timestamp;P1;durP1;ratioP1;P2;durP2;ratioP2
39654;SDS011;25336;59.944;11.010;2023-04-03T00:01:27;4.72;;;3.15;;
39654;SDS011;25336;59.944;11.010;2023-04-03T00:03:53;3.40;;;2.22;;
39654;SDS011;25336;59.944;11.010;2023-04-03T00:06:18;2.53;;;2.20;;
39654;SDS011;25336;59.944;11.010;2023-04-03T00:08:44;2.92;;;1.92;;
39654;SDS011;25336;59.944;11.010;2023-04-03T00:11:10;5.03;;;2.00;;
39654;SDS011;25336;59.944;11.010;2023-04-03T00:13:36;3.63;;;1.92;;
39654;SDS011;25336;59.944;11.010;2023-04-03T00:16:02;3.50;;;1.88;;
39654;SDS011;25336;59.944;11.010;2023-04-03T00:18:29;5.43;;;3.05;;
39654;SDS011;25336;59.944;11.010;2023-04-03T00:20:54;5.65;;;1.80;;
39654;SDS011;25336;59.944;11.010;2023-04-03T00:23:20;1.98;;;1.60;;
39654;SDS011;25336;59.944;11.010;2023-04-03T00:25:46;2.90;;;1.88;;
39654;SDS011;25336;59.944;11.010;2023-04-03T00:28:12;1.60;;;1.48;;
39654;SDS011;25336;59.944;11.010;2023-04-03T00:30:37;3.90;;;1.52;;
39654;SDS011;25336;59.944;11.010;2023-04-03T00:33:03;4.82;;;2.05;;
39654;SDS011;25336;59.944;11.010;2023-04-03T00:35:29;2.95;;;2.20;;
39654;SDS011;25336;59.944;11.010;2023-04-03T00:37:55;2.65;;;2.10;;
39654;SDS011;25336;59.944;11.010;2023-04-03T00:40:22;6.70;;;2.15;;
39654;SDS011;25336;59.944;11.010;2023-04-03T00:42:57;5.70;;;1.92;;
39654;SDS011;25336;59.944;11.010;2023-04-03T00:45:34;5.18;;;1.75;;
39654;SDS011;25336;59.944;11.010;2023-04-03T00:48:03;2.30;;;1.85;;
39654;SDS011;25336;59.944;11.010;2023-04-03T00:50:31;2.53;;;2.28;;
39654;SDS011;25336;59.944;11.010;2023-04-03T00:52:59;2.00;;;1.63;;
39654;SDS011;25336;59.944;11.010;2023-04-03T00:55:25;2.25;;;1.50;;
39654;SDS011;25336;59.944;11.010;2023-04-03T00:57:51;3.25;;;1.70;;
39654;SDS011;25336;59.944;11.010;2023-04-03T01:00:18;2.22;;;1.45;;
39654;SDS011;25336;59.944;11.010;2023-04-03T01:02:47;2.45;;;1.52;;
39654;SDS011;25336;59.944;11.010;2023-04-03T01:05:13;1.65;;;1.55;;
39654;SDS011;25336;59.944;11.010;2023-04-03T01:07:41;2.80;;;1.58;;
39654;SDS011;25336;59.944;11.010;2023-04-03T01:10:08;2.60;;;2.05;;
39654;SDS011;25336;59.944;11.010;2023-04-03T01:12:37;2.25;;;2.10;;
39654;SDS011;25336;59.944;11.010;2023-04-03T01:15:05;2.15;;;1.75;;
39654;SDS011;25336;59.944;11.010;2023-04-03T01:25:35;3.50;;;2.33;;
39654;SDS011;25336;59.944;11.010;2023-04-03T01:28:03;4.97;;;2.40;;
39654;SDS011;25336;59.944;11.010;2023-04-03T01:30:36;4.45;;;2.42;;
39654;SDS011;25336;59.944;11.010;2023-04-03T01:33:13;7.10;;;2.22;;
39654;SDS011;25336;59.944;11.010;2023-04-03T01:35:39;3.28;;;2.30;;
39654;SDS011;25336;59.944;11.010;2023-04-03T01:38:05;2.83;;;2.25;;
39654;SDS011;25336;59.944;11.010;2023-04-03T01:40:30;7.93;;;3.53;;
39654;SDS011;25336;59.944;11.010;2023-04-03T01:42:56;4.50;;;2.92;;
39654;SDS011;25336;59.944;11.010;2023-04-03T01:45:22;7.32;;;2.88;;
39654;SDS011;25336;59.944;11.010;2023-04-03T01:47:47;7.28;;;2.72;;
39654;SDS011;25336;59.944;11.010;2023-04-03T01:50:13;2.60;;;2.05;;
39654;SDS011;25336;59.944;11.010;2023-04-03T01:52:38;8.25;;;2.38;;
39654;SDS011;25336;59.944;11.010;2023-04-03T01:55:04;2.08;;;1.63;;
39654;SDS011;25336;59.944;11.010;2023-04-03T01:57:30;2.97;;;1.73;;
39654;SDS011;25336;59.944;11.010;2023-04-03T01:59:56;1.52;;;1.33;;
39654;SDS011;25336;59.944;11.010;2023-04-03T02:02:21;1.98;;;1.65;;
39654;SDS011;25336;59.944;11.010;2023-04-03T02:04:47;3.72;;;1.63;;
39654;SDS011;25336;59.944;11.010;2023-04-03T02:07:12;3.47;;;1.92;;
39654;SDS011;25336;59.944;11.010;2023-04-03T02:09:38;2.28;;;1.40;;
39654;SDS011;25336;59.944;11.010;2023-04-03T02:12:04;4.43;;;1.58;;
39654;SDS011;25336;59.944;11.010;2023-04-03T02:14:29;2.38;;;1.50;;
39654;SDS011;25336;59.944;11.010;2023-04-03T02:16:55;1.85;;;1.50;;
39654;SDS011;25336;59.944;11.010;2023-04-03T02:19:20;2.75;;;1.30;;
39654;SDS011;25336;59.944;11.010;2023-04-03T02:21:46;1.73;;;1.63;;
39654;SDS011;25336;59.944;11.010;2023-04-03T02:24:11;1.60;;;1.50;;
39654;SDS011;25336;59.944;11.010;2023-04-03T02:26:37;3.70;;;1.88;;
39654;SDS011;25336;59.944;11.010;2023-04-03T02:29:03;1.92;;;1.27;;
39654;SDS011;25336;59.944;11.010;2023-04-03T02:31:28;2.85;;;1.67;;
39654;SDS011;25336;59.944;11.010;2023-04-03T02:33:54;2.28;;;1.65;;
39654;SDS011;25336;59.944;11.010;2023-04-03T02:36:20;1.40;;;1.23;;
39654;SDS011;25336;59.944;11.010;2023-04-03T02:38:46;3.42;;;1.83;;
39654;SDS011;25336;59.944;11.010;2023-04-03T02:41:12;2.78;;;1.33;;
39654;SDS011;25336;59.944;11.010;2023-04-03T02:43:37;2.03;;;1.50;;
39654;SDS011;25336;59.944;11.010;2023-04-03T02:46:04;1.40;;;1.27;;
39654;SDS011;25336;59.944;11.010;2023-04-03T02:48:30;8.05;;;1.60;;
39654;SDS011;25336;59.944;11.010;2023-04-03T02:50:56;2.10;;;1.58;;
39654;SDS011;25336;59.944;11.010;2023-04-03T02:53:22;3.95;;;1.52;;
39654;SDS011;25336;59.944;11.010;2023-04-03T02:55:48;2.25;;;1.40;;
39654;SDS011;25336;59.944;11.010;2023-04-03T02:58:14;2.20;;;1.70;;
39654;SDS011;25336;59.944;11.010;2023-04-03T03:00:40;1.88;;;1.50;;
39654;SDS011;25336;59.944;11.010;2023-04-03T03:03:06;2.05;;;1.42;;
39654;SDS011;25336;59.944;11.010;2023-04-03T03:05:31;3.33;;;1.45;;
39654;SDS011;25336;59.944;11.010;2023-04-03T03:07:57;1.85;;;1.48;;
39654;SDS011;25336;59.944;11.010;2023-04-03T03:10:23;2.90;;;1.60;;
39654;SDS011;25336;59.944;11.010;2023-04-03T03:12:49;2.08;;;1.73;;
39654;SDS011;25336;59.944;11.010;2023-04-03T03:15:14;1.88;;;1.40;;
39654;SDS011;25336;59.944;11.010;2023-04-03T03:17:42;1.40;;;1.30;;
39654;SDS011;25336;59.944;11.010;2023-04-03T03:20:08;1.77;;;1.55;;
39654;SDS011;25336;59.944;11.010;2023-04-03T03:22:34;1.52;;;1.42;;
39654;SDS011;25336;59.944;11.010;2023-04-03T03:25:00;2.90;;;1.77;;
39654;SDS011;25336;59.944;11.010;2023-04-03T03:27:27;5.18;;;1.50;;
39654;SDS011;25336;59.944;11.010;2023-04-03T03:29:52;3.55;;;1.45;;
39654;SDS011;25336;59.944;11.010;2023-04-03T03:32:19;8.38;;;1.77;;
39654;SDS011;25336;59.944;11.010;2023-04-03T03:34:45;3.00;;;1.65;;
39654;SDS011;25336;59.944;11.010;2023-04-03T03:37:10;2.50;;;1.52;;
39654;SDS011;25336;59.944;11.010;2023-04-03T03:39:36;3.42;;;1.52;;
39654;SDS011;25336;59.944;11.010;2023-04-03T03:42:01;4.05;;;1.92;;
39654;SDS011;25336;59.944;11.010;2023-04-03T03:44:27;1.90;;;1.73;;
39654;SDS011;25336;59.944;11.010;2023-04-03T03:46:54;2.47;;;1.60;;
39654;SDS011;25336;59.944;11.010;2023-04-03T03:49:20;2.65;;;1.45;;
39654;SDS011;25336;59.944;11.010;2023-04-03T03:51:45;3.53;;;1.48;;
39654;SDS011;25336;59.944;11.010;2023-04-03T03:54:11;4.72;;;1.50;;
39654;SDS011;25336;59.944;11.010;2023-04-03T03:56:37;3.47;;;1.30;;
39654;SDS011;25336;59.944;11.010;2023-04-03T03:59:03;4.53;;;1.83;;
39654;SDS011;25336;59.944;11.010;2023-04-03T04:01:28;2.30;;;1.50;;
39654;SDS011;25336;59.944;11.010;2023-04-03T04:03:54;2.95;;;1.52;;
39654;SDS011;25336;59.944;11.010;2023-04-03T04:06:20;2.10;;;1.48;;
39654;SDS011;25336;59.944;11.010;2023-04-03T04:08:46;3.90;;;1.38;;
39654;SDS011;25336;59.944;11.010;2023-04-03T04:11:12;3.88;;;2.17;;
39654;SDS011;25336;59.944;11.010;2023-04-03T04:13:38;4.53;;;2.83;;
39654;SDS011;25336;59.944;11.010;2023-04-03T04:16:03;7.43;;;3.05;;
39654;SDS011;25336;59.944;11.010;2023-04-03T04:18:29;5.38;;;2.75;;
39654;SDS011;25336;59.944;11.010;2023-04-03T04:20:55;5.57;;;2.28;;
39654;SDS011;25336;59.944;11.010;2023-04-03T04:23:20;6.30;;;2.55;;
39654;SDS011;25336;59.944;11.010;2023-04-03T04:25:46;3.25;;;1.90;;
39654;SDS011;25336;59.944;11.010;2023-04-03T04:28:12;4.57;;;2.50;;
39654;SDS011;25336;59.944;11.010;2023-04-03T04:30:38;7.82;;;1.83;;
39654;SDS011;25336;59.944;11.010;2023-04-03T04:33:04;3.72;;;1.77;;
39654;SDS011;25336;59.944;11.010;2023-04-03T04:35:30;5.47;;;2.17;;
39654;SDS011;25336;59.944;11.010;2023-04-03T04:37:56;7.45;;;2.03;;
39654;SDS011;25336;59.944;11.010;2023-04-03T04:40:21;5.28;;;2.00;;
39654;SDS011;25336;59.944;11.010;2023-04-03T04:42:47;5.82;;;1.88;;
39654;SDS011;25336;59.944;11.010;2023-04-03T04:45:13;4.18;;;2.20;;
39654;SDS011;25336;59.944;11.010;2023-04-03T04:47:40;6.13;;;2.10;;
39654;SDS011;25336;59.944;11.010;2023-04-03T04:50:05;5.68;;;2.03;;
39654;SDS011;25336;59.944;11.010;2023-04-03T04:52:31;19.42;;;4.10;;
39654;SDS011;25336;59.944;11.010;2023-04-03T04:54:57;8.23;;;2.30;;
39654;SDS011;25336;59.944;11.010;2023-04-03T04:57:23;12.55;;;3.33;;
39654;SDS011;25336;59.944;11.010;2023-04-03T04:59:48;7.65;;;2.65;;
39654;SDS011;25336;59.944;11.010;2023-04-03T05:02:14;6.75;;;2.17;;
39654;SDS011;25336;59.944;11.010;2023-04-03T05:04:40;13.82;;;2.65;;
39654;SDS011;25336;59.944;11.010;2023-04-03T05:07:05;6.43;;;2.17;;
39654;SDS011;25336;59.944;11.010;2023-04-03T05:09:31;10.10;;;2.40;;
39654;SDS011;25336;59.944;11.010;2023-04-03T05:11:57;18.50;;;2.20;;
39654;SDS011;25336;59.944;11.010;2023-04-03T05:14:22;11.68;;;2.10;;
39654;SDS011;25336;59.944;11.010;2023-04-03T05:16:48;8.68;;;1.92;;
39654;SDS011;25336;59.944;11.010;2023-04-03T05:19:17;4.28;;;2.08;;
39654;SDS011;25336;59.944;11.010;2023-04-03T05:21:43;6.85;;;2.75;;
39654;SDS011;25336;59.944;11.010;2023-04-03T05:24:09;22.65;;;2.88;;
39654;SDS011;25336;59.944;11.010;2023-04-03T05:26:35;4.68;;;2.50;;
39654;SDS011;25336;59.944;11.010;2023-04-03T05:29:00;15.82;;;3.33;;
39654;SDS011;25336;59.944;11.010;2023-04-03T05:31:26;6.43;;;2.17;;
39654;SDS011;25336;59.944;11.010;2023-04-03T05:33:54;7.40;;;1.98;;
39654;SDS011;25336;59.944;11.010;2023-04-03T05:36:20;6.05;;;2.00;;
39654;SDS011;25336;59.944;11.010;2023-04-03T05:38:45;12.27;;;2.00;;
39654;SDS011;25336;59.944;11.010;2023-04-03T05:41:11;7.80;;;1.60;;
39654;SDS011;25336;59.944;11.010;2023-04-03T05:43:37;2.25;;;1.90;;
39654;SDS011;25336;59.944;11.010;2023-04-03T05:46:04;16.92;;;2.45;;
39654;SDS011;25336;59.944;11.010;2023-04-03T05:48:34;8.45;;;2.15;;
39654;SDS011;25336;59.944;11.010;2023-04-03T05:51:00;7.60;;;1.85;;
39654;SDS011;25336;59.944;11.010;2023-04-03T05:53:27;8.55;;;2.17;;
39654;SDS011;25336;59.944;11.010;2023-04-03T05:55:54;5.47;;;2.28;;
39654;SDS011;25336;59.944;11.010;2023-04-03T05:58:20;4.38;;;1.98;;
39654;SDS011;25336;59.944;11.010;2023-04-03T06:00:45;5.85;;;3.35;;
39654;SDS011;25336;59.944;11.010;2023-04-03T06:03:11;11.25;;;2.22;;
39654;SDS011;25336;59.944;11.010;2023-04-03T06:05:37;17.10;;;2.97;;
39654;SDS011;25336;59.944;11.010;2023-04-03T06:08:02;4.03;;;2.45;;
39654;SDS011;25336;59.944;11.010;2023-04-03T06:10:28;17.67;;;2.88;;
39654;SDS011;25336;59.944;11.010;2023-04-03T06:12:54;6.07;;;1.90;;
39654;SDS011;25336;59.944;11.010;2023-04-03T06:15:20;4.25;;;2.20;;
39654;SDS011;25336;59.944;11.010;2023-04-03T06:17:47;11.02;;;2.03;;
39654;SDS011;25336;59.944;11.010;2023-04-03T06:20:13;11.70;;;2.33;;
39654;SDS011;25336;59.944;11.010;2023-04-03T06:22:39;10.15;;;2.25;;
39654;SDS011;25336;59.944;11.010;2023-04-03T06:25:05;7.88;;;2.22;;
39654;SDS011;25336;59.944;11.010;2023-04-03T06:27:31;2.83;;;1.98;;
39654;SDS011;25336;59.944;11.010;2023-04-03T06:29:57;3.42;;;1.60;;
39654;SDS011;25336;59.944;11.010;2023-04-03T06:32:22;5.13;;;1.77;;
39654;SDS011;25336;59.944;11.010;2023-04-03T06:34:48;4.55;;;2.20;;
39654;SDS011;25336;59.944;11.010;2023-04-03T06:37:17;6.28;;;2.60;;
39654;SDS011;25336;59.944;11.010;2023-04-03T06:39:45;12.43;;;2.85;;
39654;SDS011;25336;59.944;11.010;2023-04-03T06:42:10;8.45;;;2.75;;
39654;SDS011;25336;59.944;11.010;2023-04-03T06:44:36;7.75;;;2.50;;
39654;SDS011;25336;59.944;11.010;2023-04-03T06:47:02;5.40;;;2.90;;
39654;SDS011;25336;59.944;11.010;2023-04-03T06:49:28;8.70;;;3.58;;
39654;SDS011;25336;59.944;11.010;2023-04-03T06:51:54;14.30;;;3.95;;
39654;SDS011;25336;59.944;11.010;2023-04-03T06:54:21;8.77;;;3.92;;
39654;SDS011;25336;59.944;11.010;2023-04-03T06:56:47;9.27;;;4.53;;
39654;SDS011;25336;59.944;11.010;2023-04-03T06:59:13;15.27;;;4.30;;
39654;SDS011;25336;59.944;11.010;2023-04-03T07:01:39;10.23;;;3.65;;
39654;SDS011;25336;59.944;11.010;2023-04-03T07:04:06;10.38;;;3.70;;
39654;SDS011;25336;59.944;11.010;2023-04-03T07:06:33;6.20;;;3.40;;
39654;SDS011;25336;59.944;11.010;2023-04-03T07:08:59;9.10;;;3.03;;
39654;SDS011;25336;59.944;11.010;2023-04-03T07:11:25;3.67;;;2.63;;
39654;SDS011;25336;59.944;11.010;2023-04-03T07:13:52;5.93;;;2.30;;
39654;SDS011;25336;59.944;11.010;2023-04-03T07:16:18;9.80;;;2.83;;
39654;SDS011;25336;59.944;11.010;2023-04-03T07:18:44;4.32;;;2.83;;
39654;SDS011;25336;59.944;11.010;2023-04-03T07:21:11;7.32;;;2.65;;
39654;SDS011;25336;59.944;11.010;2023-04-03T07:23:37;10.73;;;2.88;;
39654;SDS011;25336;59.944;11.010;2023-04-03T07:26:03;11.48;;;2.33;;
39654;SDS011;25336;59.944;11.010;2023-04-03T07:28:29;10.25;;;2.97;;
39654;SDS011;25336;59.944;11.010;2023-04-03T07:31:02;11.25;;;2.85;;
39654;SDS011;25336;59.944;11.010;2023-04-03T07:33:31;15.15;;;2.88;;
39654;SDS011;25336;59.944;11.010;2023-04-03T07:35:57;11.95;;;3.05;;
39654;SDS011;25336;59.944;11.010;2023-04-03T07:38:23;8.75;;;3.00;;
39654;SDS011;25336;59.944;11.010;2023-04-03T07:40:49;17.00;;;3.55;;
39654;SDS011;25336;59.944;11.010;2023-04-03T07:43:16;10.82;;;3.00;;
39654;SDS011;25336;59.944;11.010;2023-04-03T07:45:44;15.77;;;3.13;;
39654;SDS011;25336;59.944;11.010;2023-04-03T07:48:10;10.57;;;3.10;;
39654;SDS011;25336;59.944;11.010;2023-04-03T07:50:37;11.30;;;3.15;;
39654;SDS011;25336;59.944;11.010;2023-04-03T07:53:04;8.38;;;2.95;;
39654;SDS011;25336;59.944;11.010;2023-04-03T07:55:31;7.95;;;3.03;;
39654;SDS011;25336;59.944;11.010;2023-04-03T07:57:57;4.90;;;2.42;;
39654;SDS011;25336;59.944;11.010;2023-04-03T08:00:22;12.02;;;2.22;;
39654;SDS011;25336;59.944;11.010;2023-04-03T08:02:49;8.95;;;2.33;;
39654;SDS011;25336;59.944;11.010;2023-04-03T08:05:17;7.50;;;2.10;;
39654;SDS011;25336;59.944;11.010;2023-04-03T08:07:43;4.15;;;1.90;;
39654;SDS011;25336;59.944;11.010;2023-04-03T08:10:10;3.53;;;1.80;;
39654;SDS011;25336;59.944;11.010;2023-04-03T08:12:36;6.13;;;1.75;;
39654;SDS011;25336;59.944;11.010;2023-04-03T08:15:02;2.15;;;1.60;;
39654;SDS011;25336;59.944;11.010;2023-04-03T08:17:28;4.57;;;1.33;;
39654;SDS011;25336;59.944;11.010;2023-04-03T08:19:54;7.10;;;2.17;;
39654;SDS011;25336;59.944;11.010;2023-04-03T08:22:20;2.13;;;1.58;;
39654;SDS011;25336;59.944;11.010;2023-04-03T08:24:45;1.38;;;1.27;;
39654;SDS011;25336;59.944;11.010;2023-04-03T08:27:11;2.50;;;1.75;;
39654;SDS011;25336;59.944;11.010;2023-04-03T08:29:37;2.65;;;1.80;;
39654;SDS011;25336;59.944;11.010;2023-04-03T08:32:03;2.28;;;2.08;;
39654;SDS011;25336;59.944;11.010;2023-04-03T08:34:29;4.40;;;2.00;;
39654;SDS011;25336;59.944;11.010;2023-04-03T08:36:55;1.67;;;1.52;;
39654;SDS011;25336;59.944;11.010;2023-04-03T08:39:21;3.95;;;1.65;;
39654;SDS011;25336;59.944;11.010;2023-04-03T08:41:47;5.25;;;1.98;;
39654;SDS011;25336;59.944;11.010;2023-04-03T08:44:37;1.67;;;1.50;;
39654;SDS011;25336;59.944;11.010;2023-04-03T08:47:28;1.80;;;1.63;;
39654;SDS011;25336;59.944;11.010;2023-04-03T08:50:04;3.97;;;2.20;;
39654;SDS011;25336;59.944;11.010;2023-04-03T08:52:36;2.00;;;1.77;;
39654;SDS011;25336;59.944;11.010;2023-04-03T08:55:07;2.85;;;1.90;;
39654;SDS011;25336;59.944;11.010;2023-04-03T08:57:48;5.45;;;1.60;;
39654;SDS011;25336;59.944;11.010;2023-04-03T09:00:23;4.22;;;1.60;;
39654;SDS011;25336;59.944;11.010;2023-04-03T09:02:52;7.47;;;2.25;;
39654;SDS011;25336;59.944;11.010;2023-04-03T09:08:12;3.22;;;1.58;;
39654;SDS011;25336;59.944;11.010;2023-04-03T09:10:46;2.67;;;1.55;;
39654;SDS011;25336;59.944;11.010;2023-04-03T09:15:49;3.45;;;1.30;;
39654;SDS011;25336;59.944;11.010;2023-04-03T09:18:26;3.47;;;1.42;;
39654;SDS011;25336;59.944;11.010;2023-04-03T09:23:45;2.53;;;1.65;;
39654;SDS011;25336;59.944;11.010;2023-04-03T09:26:19;4.13;;;1.33;;
39654;SDS011;25336;59.944;11.010;2023-04-03T09:28:51;3.50;;;1.70;;
39654;SDS011;25336;59.944;11.010;2023-04-03T09:34:01;2.38;;;1.30;;
39654;SDS011;25336;59.944;11.010;2023-04-03T09:36:37;3.45;;;1.25;;
39654;SDS011;25336;59.944;11.010;2023-04-03T09:39:21;4.20;;;1.30;;
39654;SDS011;25336;59.944;11.010;2023-04-03T09:44:22;2.33;;;1.30;;
39654;SDS011;25336;59.944;11.010;2023-04-03T09:46:49;2.90;;;1.23;;
39654;SDS011;25336;59.944;11.010;2023-04-03T09:49:18;4.65;;;1.42;;
39654;SDS011;25336;59.944;11.010;2023-04-03T09:51:44;1.55;;;1.15;;
39654;SDS011;25336;59.944;11.010;2023-04-03T09:56:56;4.00;;;1.40;;
39654;SDS011;25336;59.944;11.010;2023-04-03T09:59:31;4.82;;;1.65;;
39654;SDS011;25336;59.944;11.010;2023-04-03T10:01:58;2.28;;;1.13;;
39654;SDS011;25336;59.944;11.010;2023-04-03T10:04:36;1.67;;;1.30;;
39654;SDS011;25336;59.944;11.010;2023-04-03T10:07:04;2.10;;;1.33;;
39654;SDS011;25336;59.944;11.010;2023-04-03T10:10:15;3.53;;;1.33;;
39654;SDS011;25336;59.944;11.010;2023-04-03T10:12:42;6.40;;;1.42;;
39654;SDS011;25336;59.944;11.010;2023-04-03T10:15:12;1.58;;;1.48;;
39654;SDS011;25336;59.944;11.010;2023-04-03T10:17:46;2.47;;;1.42;;
39654;SDS011;25336;59.944;11.010;2023-04-03T10:20:25;5.80;;;1.50;;
39654;SDS011;25336;59.944;11.010;2023-04-03T10:28:23;8.05;;;1.27;;
39654;SDS011;25336;59.944;11.010;2023-04-03T10:36:35;4.82;;;1.40;;
39654;SDS011;25336;59.944;11.010;2023-04-03T10:44:59;4.45;;;1.30;;
39654;SDS011;25336;59.944;11.010;2023-04-03T10:56:01;4.13;;;1.50;;
39654;SDS011;25336;59.944;11.010;2023-04-03T10:58:35;4.47;;;1.40;;
39654;SDS011;25336;59.944;11.010;2023-04-03T11:01:08;3.67;;;1.40;;
39654;SDS011;25336;59.944;11.010;2023-04-03T11:03:38;3.25;;;1.20;;
39654;SDS011;25336;59.944;11.010;2023-04-03T11:06:10;4.28;;;1.00;;
39654;SDS011;25336;59.944;11.010;2023-04-03T11:08:48;3.83;;;1.45;;
39654;SDS011;25336;59.944;11.010;2023-04-03T11:11:22;4.47;;;1.58;;
39654;SDS011;25336;59.944;11.010;2023-04-03T11:22:29;6.47;;;1.45;;
39654;SDS011;25336;59.944;11.010;2023-04-03T11:27:28;3.65;;;1.50;;
39654;SDS011;25336;59.944;11.010;2023-04-03T11:30:02;1.77;;;1.38;;
39654;SDS011;25336;59.944;11.010;2023-04-03T11:32:37;3.17;;;1.42;;
39654;SDS011;25336;59.944;11.010;2023-04-03T11:35:29;3.75;;;2.28;;
39654;SDS011;25336;59.944;11.010;2023-04-03T11:37:56;4.82;;;1.65;;
39654;SDS011;25336;59.944;11.010;2023-04-03T11:40:25;1.35;;;1.10;;
39654;SDS011;25336;59.944;11.010;2023-04-03T11:45:50;3.78;;;1.55;;
39654;SDS011;25336;59.944;11.010;2023-04-03T11:50:58;2.88;;;1.70;;
39654;SDS011;25336;59.944;11.010;2023-04-03T11:53:29;6.43;;;1.52;;
39654;SDS011;25336;59.944;11.010;2023-04-03T12:04:17;2.38;;;1.30;;
39654;SDS011;25336;59.944;11.010;2023-04-03T12:12:22;7.07;;;1.30;;
39654;SDS011;25336;59.944;11.010;2023-04-03T12:15:17;3.53;;;1.30;;
39654;SDS011;25336;59.944;11.010;2023-04-03T12:21:11;3.42;;;1.45;;
39654;SDS011;25336;59.944;11.010;2023-04-03T12:26:26;2.85;;;1.40;;
39654;SDS011;25336;59.944;11.010;2023-04-03T12:28:55;3.78;;;1.85;;
39654;SDS011;25336;59.944;11.010;2023-04-03T12:31:22;1.45;;;1.25;;
39654;SDS011;25336;59.944;11.010;2023-04-03T12:34:04;2.78;;;1.52;;
39654;SDS011;25336;59.944;11.010;2023-04-03T12:36:39;2.58;;;1.20;;
39654;SDS011;25336;59.944;11.010;2023-04-03T12:42:17;2.58;;;1.30;;
39654;SDS011;25336;59.944;11.010;2023-04-03T12:45:10;4.35;;;1.45;;
39654;SDS011;25336;59.944;11.010;2023-04-03T12:47:44;1.45;;;1.05;;
39654;SDS011;25336;59.944;11.010;2023-04-03T12:58:52;2.28;;;1.40;;
39654;SDS011;25336;59.944;11.010;2023-04-03T13:01:23;3.50;;;2.05;;
39654;SDS011;25336;59.944;11.010;2023-04-03T13:03:54;2.88;;;1.15;;
39654;SDS011;25336;59.944;11.010;2023-04-03T13:06:26;7.70;;;1.30;;
39654;SDS011;25336;59.944;11.010;2023-04-03T13:08:56;2.47;;;1.15;;
39654;SDS011;25336;59.944;11.010;2023-04-03T13:11:25;6.53;;;1.20;;
39654;SDS011;25336;59.944;11.010;2023-04-03T13:14:05;3.03;;;1.88;;
39654;SDS011;25336;59.944;11.010;2023-04-03T13:16:40;5.13;;;1.35;;
39654;SDS011;25336;59.944;11.010;2023-04-03T13:19:06;3.35;;;1.13;;
39654;SDS011;25336;59.944;11.010;2023-04-03T13:21:42;6.03;;;2.03;;
39654;SDS011;25336;59.944;11.010;2023-04-03T13:24:09;2.25;;;1.40;;
39654;SDS011;25336;59.944;11.010;2023-04-03T13:26:35;4.57;;;1.10;;
39654;SDS011;25336;59.944;11.010;2023-04-03T13:29:02;5.85;;;1.33;;
39654;SDS011;25336;59.944;11.010;2023-04-03T13:31:32;7.15;;;1.25;;
39654;SDS011;25336;59.944;11.010;2023-04-03T13:36:43;2.92;;;1.23;;
39654;SDS011;25336;59.944;11.010;2023-04-03T13:41:44;9.45;;;1.20;;
39654;SDS011;25336;59.944;11.010;2023-04-03T13:44:15;6.35;;;1.20;;
39654;SDS011;25336;59.944;11.010;2023-04-03T13:46:47;2.10;;;1.25;;
39654;SDS011;25336;59.944;11.010;2023-04-03T13:49:21;5.72;;;1.70;;
39654;SDS011;25336;59.944;11.010;2023-04-03T13:51:52;3.00;;;1.48;;
39654;SDS011;25336;59.944;11.010;2023-04-03T13:54:39;3.45;;;1.10;;
39654;SDS011;25336;59.944;11.010;2023-04-03T13:57:11;3.28;;;1.83;;
39654;SDS011;25336;59.944;11.010;2023-04-03T13:59:39;5.53;;;2.30;;
39654;SDS011;25336;59.944;11.010;2023-04-03T14:02:15;9.80;;;1.27;;
39654;SDS011;25336;59.944;11.010;2023-04-03T14:04:55;5.70;;;1.20;;
39654;SDS011;25336;59.944;11.010;2023-04-03T14:07:23;3.35;;;1.23;;
39654;SDS011;25336;59.944;11.010;2023-04-03T14:09:50;13.20;;;2.03;;
39654;SDS011;25336;59.944;11.010;2023-04-03T14:15:31;1.92;;;1.10;;
39654;SDS011;25336;59.944;11.010;2023-04-03T14:17:57;5.63;;;1.60;;
39654;SDS011;25336;59.944;11.010;2023-04-03T14:20:24;2.38;;;1.48;;
39654;SDS011;25336;59.944;11.010;2023-04-03T14:22:51;3.88;;;1.13;;
39654;SDS011;25336;59.944;11.010;2023-04-03T14:25:19;6.30;;;1.77;;
39654;SDS011;25336;59.944;11.010;2023-04-03T14:27:48;6.15;;;1.20;;
39654;SDS011;25336;59.944;11.010;2023-04-03T14:32:51;1.60;;;1.30;;
39654;SDS011;25336;59.944;11.010;2023-04-03T14:35:17;2.17;;;1.52;;
39654;SDS011;25336;59.944;11.010;2023-04-03T14:37:44;2.88;;;1.30;;
39654;SDS011;25336;59.944;11.010;2023-04-03T14:40:18;3.08;;;1.27;;
39654;SDS011;25336;59.944;11.010;2023-04-03T14:42:46;4.53;;;1.52;;
39654;SDS011;25336;59.944;11.010;2023-04-03T14:45:13;6.07;;;1.75;;
39654;SDS011;25336;59.944;11.010;2023-04-03T14:47:45;3.42;;;1.30;;
39654;SDS011;25336;59.944;11.010;2023-04-03T14:50:18;4.07;;;1.42;;
39654;SDS011;25336;59.944;11.010;2023-04-03T14:52:50;3.47;;;1.20;;
39654;SDS011;25336;59.944;11.010;2023-04-03T14:55:18;5.00;;;1.70;;
39654;SDS011;25336;59.944;11.010;2023-04-03T14:57:46;4.78;;;1.60;;
39654;SDS011;25336;59.944;11.010;2023-04-03T15:00:19;2.67;;;1.45;;
39654;SDS011;25336;59.944;11.010;2023-04-03T15:02:46;3.53;;;1.88;;
39654;SDS011;25336;59.944;11.010;2023-04-03T15:05:12;4.72;;;1.63;;
39654;SDS011;25336;59.944;11.010;2023-04-03T15:10:41;3.15;;;1.30;;
39654;SDS011;25336;59.944;11.010;2023-04-03T15:13:07;5.47;;;1.45;;
39654;SDS011;25336;59.944;11.010;2023-04-03T15:15:35;7.22;;;1.50;;
39654;SDS011;25336;59.944;11.010;2023-04-03T15:18:02;5.57;;;1.40;;
39654;SDS011;25336;59.944;11.010;2023-04-03T15:20:28;4.95;;;2.22;;
39654;SDS011;25336;59.944;11.010;2023-04-03T15:22:57;2.55;;;1.50;;
39654;SDS011;25336;59.944;11.010;2023-04-03T15:25:25;6.22;;;2.70;;
39654;SDS011;25336;59.944;11.010;2023-04-03T15:27:52;5.80;;;1.67;;
39654;SDS011;25336;59.944;11.010;2023-04-03T15:30:21;3.10;;;1.42;;
39654;SDS011;25336;59.944;11.010;2023-04-03T15:32:47;19.55;;;2.13;;
39654;SDS011;25336;59.944;11.010;2023-04-03T15:35:13;2.78;;;1.30;;
39654;SDS011;25336;59.944;11.010;2023-04-03T15:37:39;2.65;;;1.50;;
39654;SDS011;25336;59.944;11.010;2023-04-03T15:40:05;3.78;;;1.52;;
39654;SDS011;25336;59.944;11.010;2023-04-03T15:42:31;5.20;;;1.63;;
39654;SDS011;25336;59.944;11.010;2023-04-03T15:44:57;3.15;;;1.27;;
39654;SDS011;25336;59.944;11.010;2023-04-03T15:47:24;12.43;;;1.73;;
39654;SDS011;25336;59.944;11.010;2023-04-03T15:49:50;4.30;;;1.63;;
39654;SDS011;25336;59.944;11.010;2023-04-03T15:52:16;3.78;;;1.30;;
39654;SDS011;25336;59.944;11.010;2023-04-03T15:54:41;3.05;;;1.50;;
39654;SDS011;25336;59.944;11.010;2023-04-03T15:57:07;4.70;;;2.38;;
39654;SDS011;25336;59.944;11.010;2023-04-03T15:59:33;11.85;;;2.25;;
39654;SDS011;25336;59.944;11.010;2023-04-03T16:01:58;5.38;;;1.77;;
39654;SDS011;25336;59.944;11.010;2023-04-03T16:04:26;5.65;;;1.88;;
39654;SDS011;25336;59.944;11.010;2023-04-03T16:06:52;8.95;;;2.10;;
39654;SDS011;25336;59.944;11.010;2023-04-03T16:09:18;4.55;;;1.50;;
39654;SDS011;25336;59.944;11.010;2023-04-03T16:11:44;4.28;;;2.15;;
39654;SDS011;25336;59.944;11.010;2023-04-03T16:14:10;5.82;;;2.35;;
39654;SDS011;25336;59.944;11.010;2023-04-03T16:16:35;9.25;;;3.47;;
39654;SDS011;25336;59.944;11.010;2023-04-03T16:19:02;5.18;;;3.20;;
39654;SDS011;25336;59.944;11.010;2023-04-03T16:21:28;4.20;;;1.35;;
39654;SDS011;25336;59.944;11.010;2023-04-03T16:23:56;3.40;;;2.00;;
39654;SDS011;25336;59.944;11.010;2023-04-03T16:26:26;2.90;;;2.15;;
39654;SDS011;25336;59.944;11.010;2023-04-03T16:28:52;4.50;;;1.70;;
39654;SDS011;25336;59.944;11.010;2023-04-03T16:31:18;5.82;;;1.50;;